Wetterdaten: Montag, 15.09.2014
Datum Zeit Temperatur Luftfeuchte Luftdruck Regen Wind Richtung Richtung Taupunkt Windchill Windben
15.09.2014 00:00 10,9 C 90 % 1019,5 hPa 0,0 l/m 0,0 km/h (0 Bft) N-NO 22 9,3 C 17,9 C 0,0 km/h (0 Bft)
15.09.2014 00:10 10,9 C 91 % 1019,2 hPa 0,0 l/m 0,0 km/h (0 Bft) N-NO 22 9,5 C 17,9 C 0,0 km/h (0 Bft)
15.09.2014 00:20 11,3 C 91 % 1019,2 hPa 0,0 l/m 0,0 km/h (0 Bft) N-NO 22 9,9 C 17,9 C 0,0 km/h (0 Bft)
15.09.2014 00:30 11,3 C 91 % 1019,3 hPa 0,0 l/m 0,0 km/h (0 Bft) N-NO 22 9,9 C 17,9 C 0,0 km/h (0 Bft)
15.09.2014 00:40 11,4 C 91 % 1019,3 hPa 0,0 l/m 0,0 km/h (0 Bft) N-NO 22 10,0 C 17,9 C 0,0 km/h (0 Bft)
15.09.2014 00:50 11,5 C 91 % 1019,3 hPa 0,0 l/m 0,0 km/h (0 Bft) N-NO 22 10,1 C 17,9 C 0,0 km/h (0 Bft)
15.09.2014 01:00 11,7 C 92 % 1019,3 hPa 0,0 l/m 0,0 km/h (0 Bft) N-NO 22 10,4 C 17,9 C 0,0 km/h (0 Bft)
15.09.2014 01:10 11,9 C 92 % 1019,0 hPa 0,0 l/m 0,0 km/h (0 Bft) N-NO 22 10,6 C 17,9 C 0,0 km/h (0 Bft)
15.09.2014 01:20 11,9 C 92 % 1019,0 hPa 0,0 l/m 0,0 km/h (0 Bft) N-NO 22 10,6 C 17,9 C 0,0 km/h (0 Bft)
15.09.2014 01:30 12,1 C 92 % 1018,9 hPa 0,0 l/m 0,0 km/h (0 Bft) N-NO 22 10,8 C 17,9 C 0,0 km/h (0 Bft)
15.09.2014 01:40 11,8 C 91 % 1018,9 hPa 0,0 l/m 0,0 km/h (0 Bft) N-NO 22 10,4 C 17,9 C 0,0 km/h (0 Bft)
15.09.2014 01:50 11,9 C 91 % 1018,8 hPa 0,0 l/m 0,0 km/h (0 Bft) N-NO 22 10,5 C 17,9 C 0,0 km/h (0 Bft)
15.09.2014 02:00 11,9 C 91 % 1018,8 hPa 0,0 l/m 0,0 km/h (0 Bft) N-NO 22 10,5 C 17,9 C 0,0 km/h (0 Bft)
15.09.2014 02:10 11,8 C 91 % 1018,9 hPa 0,0 l/m 0,0 km/h (0 Bft) N-NO 22 10,4 C 17,9 C 0,0 km/h (0 Bft)
15.09.2014 02:20 11,9 C 91 % 1018,9 hPa 0,0 l/m 0,0 km/h (0 Bft) N-NO 22 10,5 C 17,9 C 0,0 km/h (0 Bft)
15.09.2014 02:30 11,8 C 90 % 1018,9 hPa 0,0 l/m 0,0 km/h (0 Bft) N-NO 22 10,2 C 17,9 C 0,0 km/h (0 Bft)
15.09.2014 02:40 11,8 C 90 % 1018,9 hPa 0,0 l/m 0,0 km/h (0 Bft) N-NO 22 10,2 C 17,9 C 0,0 km/h (0 Bft)
15.09.2014 02:50 11,7 C 90 % 1018,9 hPa 0,0 l/m 0,0 km/h (0 Bft) N-NO 22 10,1 C 17,9 C 0,0 km/h (0 Bft)
15.09.2014 03:00 11,8 C 90 % 1018,9 hPa 0,0 l/m 0,0 km/h (0 Bft) N-NO 22 10,2 C 17,9 C 0,0 km/h (0 Bft)
15.09.2014 03:10 11,4 C 89 % 1018,9 hPa 0,0 l/m 0,0 km/h (0 Bft) N-NO 22 9,7 C 17,9 C 0,0 km/h (0 Bft)
15.09.2014 03:20 11,5 C 89 % 1018,9 hPa 0,0 l/m 0,0 km/h (0 Bft) N-NO 22 9,8 C 17,9 C 0,0 km/h (0 Bft)
15.09.2014 03:28 11,4 C 89 % 1018,9 hPa 0,0 l/m 0,0 km/h (0 Bft) N-NO 22 9,7 C 17,9 C 0,0 km/h (0 Bft)
15.09.2014 03:30 11,4 C 89 % 1018,9 hPa 0,0 l/m 0,0 km/h (0 Bft) N-NO 22 9,7 C 17,9 C 0,0 km/h (0 Bft)
15.09.2014 03:40 11,3 C 89 % 1018,9 hPa 0,0 l/m 0,0 km/h (0 Bft) N-NO 22 9,6 C 17,9 C 0,0 km/h (0 Bft)
15.09.2014 03:50 11,2 C 89 % 1018,9 hPa 0,0 l/m 0,0 km/h (0 Bft) N-NO 22 9,5 C 17,9 C 0,0 km/h (0 Bft)
15.09.2014 04:00 11,0 C 89 % 1018,9 hPa 0,0 l/m 0,0 km/h (0 Bft) N-NO 22 9,3 C 17,9 C 0,0 km/h (0 Bft)
15.09.2014 04:10 11,1 C 89 % 1018,8 hPa 0,0 l/m 0,0 km/h (0 Bft) N-NO 22 9,4 C 17,9 C 0,0 km/h (0 Bft)
15.09.2014 04:20 11,1 C 89 % 1018,8 hPa 0,0 l/m 0,0 km/h (0 Bft) N-NO 22 9,4 C 17,9 C 0,0 km/h (0 Bft)
15.09.2014 04:30 11,0 C 89 % 1019,0 hPa 0,0 l/m 0,0 km/h (0 Bft) N-NO 22 9,3 C 17,9 C 0,0 km/h (0 Bft)
15.09.2014 04:40 11,0 C 89 % 1019,0 hPa 0,0 l/m 0,0 km/h (0 Bft) N-NO 22 9,3 C 17,9 C 0,0 km/h (0 Bft)
15.09.2014 04:50 11,0 C 89 % 1018,9 hPa 0,0 l/m 0,0 km/h (0 Bft) N-NO 22 9,3 C 17,9 C 0,0 km/h (0 Bft)
15.09.2014 05:00 10,9 C 89 % 1018,9 hPa 0,0 l/m 0,0 km/h (0 Bft) N-NO 22 9,2 C 17,9 C 0,0 km/h (0 Bft)
15.09.2014 05:10 10,8 C 89 % 1018,9 hPa 0,0 l/m 0,0 km/h (0 Bft) N-NO 22 9,1 C 17,9 C 0,0 km/h (0 Bft)
15.09.2014 05:20 10,5 C 89 % 1018,9 hPa 0,0 l/m 0,0 km/h (0 Bft) N-NO 22 8,8 C 17,9 C 0,0 km/h (0 Bft)
15.09.2014 05:30 10,5 C 89 % 1018,9 hPa 0,0 l/m 0,0 km/h (0 Bft) N-NO 22 8,8 C 17,9 C 0,0 km/h (0 Bft)
15.09.2014 05:40 10,5 C 89 % 1018,9 hPa 0,0 l/m 0,0 km/h (0 Bft) N-NO 22 8,8 C 17,9 C 0,0 km/h (0 Bft)
15.09.2014 05:50 10,2 C 89 % 1018,8 hPa 0,0 l/m 0,0 km/h (0 Bft) N-NO 22 8,5 C 17,9 C 0,0 km/h (0 Bft)
15.09.2014 06:00 9,7 C 89 % 1018,8 hPa 0,0 l/m 0,0 km/h (0 Bft) N-NO 22 8,0 C 17,9 C 0,0 km/h (0 Bft)
15.09.2014 06:10 9,7 C 89 % 1018,8 hPa 0,0 l/m 0,0 km/h (0 Bft) N-NO 22 8,0 C 17,9 C 0,0 km/h (0 Bft)
15.09.2014 06:20 9,9 C 90 % 1018,8 hPa 0,0 l/m 0,0 km/h (0 Bft) N-NO 22 8,3 C 17,9 C 0,0 km/h (0 Bft)
15.09.2014 06:30 9,8 C 90 % 1018,7 hPa 0,0 l/m 0,0 km/h (0 Bft) N-NO 22 8,2 C 17,9 C 0,0 km/h (0 Bft)
15.09.2014 06:40 9,9 C 90 % 1018,7 hPa 0,0 l/m 0,0 km/h (0 Bft) N-NO 22 8,3 C 17,9 C 0,0 km/h (0 Bft)
15.09.2014 06:50 9,7 C 90 % 1018,7 hPa 0,0 l/m 0,0 km/h (0 Bft) N-NO 22 8,1 C 17,9 C 0,0 km/h (0 Bft)
15.09.2014 07:00 9,3 C 90 % 1018,7 hPa 0,0 l/m 0,0 km/h (0 Bft) N-NO 22 7,7 C 17,9 C 0,0 km/h (0 Bft)
15.09.2014 07:10 9,0 C 90 % 1018,8 hPa 0,0 l/m 0,0 km/h (0 Bft) N-NO 22 7,4 C 17,9 C 0,0 km/h (0 Bft)
15.09.2014 07:20 9,0 C 90 % 1018,8 hPa 0,0 l/m 0,0 km/h (0 Bft) N-NO 22 7,4 C 17,9 C 0,0 km/h (0 Bft)
15.09.2014 07:28 9,3 C 90 % 1018,9 hPa 0,0 l/m 0,0 km/h (0 Bft) N-NO 22 7,7 C 17,9 C 0,0 km/h (0 Bft)
15.09.2014 07:30 9,3 C 90 % 1018,9 hPa 0,0 l/m 0,0 km/h (0 Bft) N-NO 22 7,7 C 17,9 C 0,0 km/h (0 Bft)
15.09.2014 07:40 9,2 C 91 % 1018,9 hPa 0,0 l/m 0,0 km/h (0 Bft) N-NO 22 7,8 C 17,9 C 0,0 km/h (0 Bft)
15.09.2014 07:50 9,1 C 90 % 1019,0 hPa 0,0 l/m 0,0 km/h (0 Bft) N-NO 22 7,5 C 17,9 C 0,0 km/h (0 Bft)
15.09.2014 08:00 9,3 C 91 % 1019,0 hPa 0,0 l/m 0,0 km/h (0 Bft) N-NO 22 7,9 C 17,9 C 0,0 km/h (0 Bft)
15.09.2014 08:10 9,0 C 90 % 1018,9 hPa 0,0 l/m 0,0 km/h (0 Bft) N-NO 22 7,4 C 17,9 C 0,0 km/h (0 Bft)
15.09.2014 08:20 9,0 C 90 % 1018,9 hPa 0,0 l/m 0,0 km/h (0 Bft) N-NO 22 7,4 C 17,9 C 0,0 km/h (0 Bft)
15.09.2014 08:30 9,5 C 91 % 1018,9 hPa 0,0 l/m 0,0 km/h (0 Bft) N-NO 22 8,1 C 17,9 C 0,0 km/h (0 Bft)
15.09.2014 08:40 11,1 C 88 % 1018,9 hPa 0,0 l/m 0,0 km/h (0 Bft) N-NO 22 9,2 C 17,9 C 0,0 km/h (0 Bft)
15.09.2014 08:50 10,4 C 88 % 1019,3 hPa 0,0 l/m 0,0 km/h (0 Bft) N-NO 22 8,5 C 17,9 C 0,0 km/h (0 Bft)
15.09.2014 09:00 13,5 C 87 % 1019,3 hPa 0,0 l/m 0,0 km/h (0 Bft) N-NO 22 11,4 C 17,9 C 0,0 km/h (0 Bft)
15.09.2014 09:10 16,5 C 79 % 1019,1 hPa 0,0 l/m 0,0 km/h (0 Bft) N-NO 22 12,8 C 17,9 C 0,0 km/h (0 Bft)
15.09.2014 09:20 16,7 C 70 % 1019,1 hPa 0,0 l/m 0,0 km/h (0 Bft) N-NO 22 11,2 C 17,9 C 0,0 km/h (0 Bft)
15.09.2014 09:30 14,4 C 75 % 1019,2 hPa 0,0 l/m 0,0 km/h (0 Bft) N-NO 22 10,0 C 17,9 C 0,0 km/h (0 Bft)
15.09.2014 09:40 14,3 C 74 % 1019,2 hPa 0,0 l/m 0,0 km/h (0 Bft) N-NO 22 9,7 C 17,9 C 0,0 km/h (0 Bft)
15.09.2014 09:50 14,7 C 75 % 1019,3 hPa 0,0 l/m 0,0 km/h (0 Bft) N-NO 22 10,3 C 17,9 C 0,0 km/h (0 Bft)
15.09.2014 10:00 14,7 C 75 % 1019,3 hPa 0,0 l/m 0,0 km/h (0 Bft) N-NO 22 10,3 C 17,9 C 0,0 km/h (0 Bft)
15.09.2014 10:10 14,9 C 75 % 1019,8 hPa 0,0 l/m 0,0 km/h (0 Bft) N-NO 22 10,5 C 17,9 C 0,0 km/h (0 Bft)
15.09.2014 10:20 14,6 C 75 % 1019,8 hPa 0,0 l/m 0,0 km/h (0 Bft) N-NO 22 10,2 C 17,9 C 0,0 km/h (0 Bft)
15.09.2014 10:28 14,9 C 74 % 1019,7 hPa 0,0 l/m 0,0 km/h (0 Bft) N-NO 22 10,3 C 17,9 C 0,0 km/h (0 Bft)
15.09.2014 10:30 14,9 C 74 % 1019,7 hPa 0,0 l/m 0,0 km/h (0 Bft) N-NO 22 10,3 C 17,9 C 0,0 km/h (0 Bft)
15.09.2014 10:40 14,4 C 75 % 1019,7 hPa 0,0 l/m 0,0 km/h (0 Bft) N-NO 22 10,0 C 17,9 C 0,0 km/h (0 Bft)
15.09.2014 10:50 15,0 C 76 % 1019,8 hPa 0,0 l/m 0,0 km/h (0 Bft) N-NO 22 10,8 C 17,9 C 0,0 km/h (0 Bft)
15.09.2014 11:00 16,2 C 70 % 1019,8 hPa 0,0 l/m 0,0 km/h (0 Bft) N-NO 22 10,7 C 17,9 C 0,0 km/h (0 Bft)
15.09.2014 11:10 18,2 C 58 % 1020,0 hPa 0,0 l/m 0,0 km/h (0 Bft) N-NO 22 9,8 C 17,9 C 0,0 km/h (0 Bft)
15.09.2014 11:20 18,2 C 59 % 1020,0 hPa 0,0 l/m 0,0 km/h (0 Bft) N-NO 22 10,1 C 17,9 C 0,0 km/h (0 Bft)
15.09.2014 11:30 19,8 C 57 % 1020,1 hPa 0,0 l/m 0,0 km/h (0 Bft) N-NO 22 11,0 C 17,9 C 0,0 km/h (0 Bft)
15.09.2014 11:40 19,9 C 52 % 1020,1 hPa 0,0 l/m 0,0 km/h (0 Bft) N-NO 22 9,7 C 17,9 C 0,0 km/h (0 Bft)
15.09.2014 11:50 21,7 C 48 % 1020,1 hPa 0,0 l/m 0,0 km/h (0 Bft) N-NO 22 10,2 C 17,9 C 0,0 km/h (0 Bft)
15.09.2014 12:00 21,4 C 52 % 1020,1 hPa 0,0 l/m 0,0 km/h (0 Bft) N-NO 22 11,1 C 17,9 C 0,0 km/h (0 Bft)
15.09.2014 12:10 22,7 C 52 % 1020,1 hPa 0,0 l/m 0,0 km/h (0 Bft) N-NO 22 12,3 C 17,9 C 0,0 km/h (0 Bft)
15.09.2014 12:20 22,4 C 49 % 1020,1 hPa 0,0 l/m 0,0 km/h (0 Bft) N-NO 22 11,2 C 17,9 C 0,0 km/h (0 Bft)
15.09.2014 12:30 22,5 C 49 % 1020,1 hPa 0,0 l/m 0,0 km/h (0 Bft) N-NO 22 11,2 C 17,9 C 0,0 km/h (0 Bft)
15.09.2014 12:40 23,3 C 50 % 1020,1 hPa 0,0 l/m 0,0 km/h (0 Bft) N-NO 22 12,3 C 17,9 C 0,0 km/h (0 Bft)
15.09.2014 12:50 20,6 C 55 % 1020,0 hPa 0,0 l/m 0,0 km/h (0 Bft) N-NO 22 11,2 C 17,9 C 0,0 km/h (0 Bft)
15.09.2014 13:00 21,4 C 52 % 1020,0 hPa 0,0 l/m 0,0 km/h (0 Bft) N-NO 22 11,1 C 17,9 C 0,0 km/h (0 Bft)
15.09.2014 13:10 21,7 C 52 % 1020,1 hPa 0,0 l/m 0,0 km/h (0 Bft) N-NO 22 11,4 C 17,9 C 0,0 km/h (0 Bft)
15.09.2014 13:20 21,9 C 49 % 1020,1 hPa 0,0 l/m 0,0 km/h (0 Bft) N-NO 22 10,7 C 17,9 C 0,0 km/h (0 Bft)
15.09.2014 13:30 22,6 C 49 % 1020,1 hPa 0,0 l/m 0,0 km/h (0 Bft) N-NO 22 11,3 C 17,9 C 0,0 km/h (0 Bft)
15.09.2014 13:40 21,0 C 54 % 1020,1 hPa 0,0 l/m 0,0 km/h (0 Bft) N-NO 22 11,3 C 17,9 C 0,0 km/h (0 Bft)
15.09.2014 13:50 21,6 C 54 % 1020,1 hPa 0,0 l/m 0,0 km/h (0 Bft) N-NO 22 11,9 C 17,9 C 0,0 km/h (0 Bft)
15.09.2014 14:00 21,2 C 55 % 1020,1 hPa 0,0 l/m 0,0 km/h (0 Bft) N-NO 22 11,8 C 17,9 C 0,0 km/h (0 Bft)
15.09.2014 14:10 22,5 C 52 % 1020,1 hPa 0,0 l/m 0,0 km/h (0 Bft) N-NO 22 12,1 C 17,9 C 0,0 km/h (0 Bft)
15.09.2014 14:20 20,6 C 56 % 1020,1 hPa 0,0 l/m 0,0 km/h (0 Bft) N-NO 22 11,5 C 17,9 C 0,0 km/h (0 Bft)
15.09.2014 14:28 21,5 C 54 % 1019,9 hPa 0,0 l/m 0,0 km/h (0 Bft) N-NO 22 11,8 C 17,9 C 0,0 km/h (0 Bft)
15.09.2014 14:30 21,5 C 54 % 1019,9 hPa 0,0 l/m 0,0 km/h (0 Bft) N-NO 22 11,8 C 17,9 C 0,0 km/h (0 Bft)
15.09.2014 14:40 21,4 C 55 % 1019,9 hPa 0,0 l/m 0,0 km/h (0 Bft) N-NO 22 12,0 C 17,9 C 0,0 km/h (0 Bft)
15.09.2014 14:50 21,9 C 54 % 1020,0 hPa 0,0 l/m 0,0 km/h (0 Bft) N-NO 22 12,2 C 17,9 C 0,0 km/h (0 Bft)
15.09.2014 15:00 21,3 C 54 % 1020,0 hPa 0,0 l/m 0,0 km/h (0 Bft) N-NO 22 11,6 C 17,9 C 0,0 km/h (0 Bft)
15.09.2014 15:10 22,1 C 51 % 1019,9 hPa 0,0 l/m 0,0 km/h (0 Bft) N-NO 22 11,5 C 17,9 C 0,0 km/h (0 Bft)
15.09.2014 15:20 20,9 C 55 % 1019,9 hPa 0,0 l/m 0,0 km/h (0 Bft) N-NO 22 11,5 C 17,9 C 0,0 km/h (0 Bft)
15.09.2014 15:30 21,9 C 56 % 1019,7 hPa 0,0 l/m 0,0 km/h (0 Bft) N-NO 22 12,7 C 17,9 C 0,0 km/h (0 Bft)
15.09.2014 15:40 22,9 C 53 % 1019,7 hPa 0,0 l/m 0,0 km/h (0 Bft) N-NO 22 12,8 C 17,9 C 0,0 km/h (0 Bft)
15.09.2014 15:50 22,1 C 54 % 1019,8 hPa 0,0 l/m 0,0 km/h (0 Bft) N-NO 22 12,3 C 17,9 C 0,0 km/h (0 Bft)
15.09.2014 16:00 19,8 C 58 % 1019,8 hPa 0,0 l/m 0,0 km/h (0 Bft) N-NO 22 11,3 C 17,9 C 0,0 km/h (0 Bft)
15.09.2014 16:10 21,8 C 55 % 1019,9 hPa 0,0 l/m 0,0 km/h (0 Bft) N-NW 337 12,4 C 17,9 C 0,0 km/h (0 Bft)
15.09.2014 16:20 21,1 C 56 % 1019,9 hPa 0,0 l/m 4,3 km/h (1 Bft) N-NW 337 12,0 C 24,2 C 5,0 km/h (1 Bft)
15.09.2014 16:30 20,2 C 58 % 1019,8 hPa 0,0 l/m 3,2 km/h (1 Bft) O 90 11,7 C 24,0 C 5,0 km/h (1 Bft)
15.09.2014 16:40 20,1 C 60 % 1019,8 hPa 0,0 l/m 3,1 km/h (1 Bft) W-SW 247 12,1 C 22,7 C 3,9 km/h (1 Bft)
15.09.2014 16:50 20,9 C 56 % 1019,4 hPa 0,0 l/m 3,4 km/h (1 Bft) SO 135 11,8 C 24,7 C 7,6 km/h (2 Bft)
15.09.2014 17:00 20,2 C 63 % 1019,4 hPa 0,0 l/m 5,1 km/h (1 Bft) S-SO 157 12,9 C 24,5 C 9,2 km/h (2 Bft)
15.09.2014 17:10 18,7 C 67 % 1022,3 hPa 0,0 l/m 5,3 km/h (1 Bft) O-NO 67 12,4 C 21,2 C 9,3 km/h (2 Bft)
15.09.2014 17:20 18,2 C 69 % 1022,3 hPa 0,0 l/m 3,7 km/h (1 Bft) O-NO 67 12,4 C 19,3 C 3,9 km/h (1 Bft)
15.09.2014 17:30 18,2 C 71 % 1020,7 hPa 0,0 l/m 3,1 km/h (1 Bft) O-NO 67 12,9 C 19,4 C 4,5 km/h (1 Bft)
15.09.2014 17:40 18,2 C 71 % 1020,7 hPa 0,0 l/m 4,3 km/h (1 Bft) S-SW 202 12,9 C 21,5 C 9,5 km/h (2 Bft)
15.09.2014 17:50 17,7 C 72 % 1022,4 hPa 0,0 l/m 4,2 km/h (1 Bft) N-NO 22 12,6 C 20,8 C 3,9 km/h (1 Bft)
15.09.2014 18:00 17,5 C 75 % 1022,4 hPa 0,0 l/m 4,0 km/h (1 Bft) O-SO 112 13,0 C 20,8 C 10,0 km/h (2 Bft)
15.09.2014 18:10 17,2 C 75 % 1020,4 hPa 0,0 l/m 4,2 km/h (1 Bft) O-NO 67 12,7 C 21,0 C 6,1 km/h (2 Bft)
15.09.2014 18:20 17,0 C 76 % 1020,4 hPa 0,0 l/m 4,7 km/h (1 Bft) N-NO 22 12,7 C 20,6 C 5,5 km/h (1 Bft)
15.09.2014 18:30 16,8 C 77 % 1019,4 hPa 0,0 l/m 4,2 km/h (1 Bft) O-NO 67 12,7 C 19,9 C 6,0 km/h (2 Bft)
15.09.2014 18:40 16,4 C 78 % 1019,4 hPa 0,0 l/m 4,5 km/h (1 Bft) O-NO 67 12,6 C 18,2 C 6,9 km/h (2 Bft)
15.09.2014 18:50 16,1 C 79 % 1018,8 hPa 0,0 l/m 2,6 km/h (1 Bft) O-NO 67 12,5 C 16,9 C 0,0 km/h (0 Bft)
15.09.2014 19:00 15,6 C 81 % 1018,8 hPa 0,0 l/m 2,6 km/h (1 Bft) NO 45 12,3 C 16,2 C 4,3 km/h (1 Bft)
15.09.2014 19:10 15,1 C 82 % 1018,5 hPa 0,0 l/m 3,1 km/h (1 Bft) NO 45 12,0 C 15,8 C 0,0 km/h (0 Bft)
15.09.2014 19:20 14,4 C 82 % 1018,5 hPa 0,0 l/m 0,6 km/h (0 Bft) O-SO 112 11,4 C 15,3 C 0,0 km/h (0 Bft)
15.09.2014 19:30 14,1 C 85 % 1018,4 hPa 0,0 l/m 0,5 km/h (0 Bft) O-NO 67 11,6 C 14,4 C 0,0 km/h (0 Bft)
15.09.2014 19:40 13,5 C 85 % 1018,4 hPa 0,0 l/m 1,9 km/h (1 Bft) O-NO 67 11,0 C 13,8 C 2,4 km/h (1 Bft)
15.09.2014 19:50 13,1 C 86 % 1018,1 hPa 0,0 l/m 0,6 km/h (0 Bft) SO 135 10,8 C 13,1 C 0,0 km/h (0 Bft)
15.09.2014 20:00 12,7 C 87 % 1018,1 hPa 0,0 l/m 0,2 km/h (0 Bft) W-SW 247 10,6 C 12,7 C 0,0 km/h (0 Bft)
15.09.2014 20:10 12,5 C 87 % 1017,9 hPa 0,0 l/m 0,0 km/h (0 Bft) O-SO 112 10,4 C 12,2 C 0,0 km/h (0 Bft)
15.09.2014 20:20 12,2 C 88 % 1017,9 hPa 0,0 l/m 0,0 km/h (0 Bft) S-SO 157 10,3 C 12,0 C 0,0 km/h (0 Bft)
15.09.2014 20:30 12,0 C 88 % 1017,8 hPa 0,0 l/m 0,0 km/h (0 Bft) SO 135 10,1 C 11,7 C 0,0 km/h (0 Bft)
15.09.2014 20:40 11,8 C 88 % 1017,8 hPa 0,0 l/m 0,0 km/h (0 Bft) S 180 9,9 C 11,5 C 0,0 km/h (0 Bft)
15.09.2014 20:50 12,0 C 89 % 1017,5 hPa 0,0 l/m 0,0 km/h (0 Bft) S-SO 157 10,2 C 11,7 C 0,0 km/h (0 Bft)
15.09.2014 21:00 11,3 C 89 % 1017,5 hPa 0,0 l/m 0,0 km/h (0 Bft) SO 135 9,6 C 11,6 C 0,0 km/h (0 Bft)
15.09.2014 21:10 11,4 C 89 % 1017,7 hPa 0,0 l/m 0,0 km/h (0 Bft) SO 135 9,7 C 11,6 C 0,0 km/h (0 Bft)
15.09.2014 21:18 11,5 C 89 % 1017,7 hPa 0,0 l/m 0,0 km/h (0 Bft) SO 135 9,8 C 11,6 C 0,0 km/h (0 Bft)
15.09.2014 21:20 11,5 C 89 % 1017,7 hPa 0,0 l/m 0,0 km/h (0 Bft) SO 135 9,8 C 11,6 C 0,0 km/h (0 Bft)
15.09.2014 21:30 11,5 C 89 % 1017,9 hPa 0,0 l/m 0,0 km/h (0 Bft) SO 135 9,8 C 11,6 C 0,0 km/h (0 Bft)
15.09.2014 21:40 11,4 C 90 % 1017,9 hPa 0,0 l/m 0,0 km/h (0 Bft) SO 135 9,8 C 11,6 C 0,0 km/h (0 Bft)
15.09.2014 21:50 11,5 C 91 % 1018,1 hPa 0,0 l/m 0,0 km/h (0 Bft) SO 135 10,1 C 11,6 C 0,0 km/h (0 Bft)
15.09.2014 22:00 10,7 C 91 % 1018,1 hPa 0,0 l/m 0,0 km/h (0 Bft) SO 135 9,3 C 11,6 C 0,0 km/h (0 Bft)
15.09.2014 22:10 10,3 C 91 % 1018,2 hPa 0,0 l/m 0,0 km/h (0 Bft) SO 135 8,9 C 11,6 C 0,0 km/h (0 Bft)
15.09.2014 22:20 10,2 C 91 % 1018,2 hPa 0,0 l/m 0,0 km/h (0 Bft) SO 135 8,8 C 11,6 C 0,0 km/h (0 Bft)
15.09.2014 22:30 10,1 C 91 % 1018,4 hPa 0,0 l/m 0,0 km/h (0 Bft) SO 135 8,7 C 11,6 C 0,0 km/h (0 Bft)
15.09.2014 22:40 10,4 C 91 % 1018,4 hPa 0,0 l/m 0,0 km/h (0 Bft) SO 135 9,0 C 11,6 C 0,0 km/h (0 Bft)
15.09.2014 22:50 10,9 C 92 % 1018,4 hPa 0,0 l/m 0,0 km/h (0 Bft) SO 135 9,7 C 11,6 C 0,0 km/h (0 Bft)
15.09.2014 23:00 10,9 C 92 % 1018,4 hPa 0,0 l/m 0,0 km/h (0 Bft) SO 135 9,7 C 11,6 C 0,0 km/h (0 Bft)
15.09.2014 23:10 10,3 C 92 % 1018,6 hPa 0,0 l/m 0,0 km/h (0 Bft) SO 135 9,1 C 11,6 C 0,0 km/h (0 Bft)
15.09.2014 23:20 10,2 C 92 % 1018,6 hPa 0,0 l/m 0,0 km/h (0 Bft) SO 135 9,0 C 11,6 C 0,0 km/h (0 Bft)
15.09.2014 23:30 10,7 C 92 % 1018,6 hPa 0,0 l/m 0,0 km/h (0 Bft) SO 135 9,5 C 11,6 C 0,0 km/h (0 Bft)
15.09.2014 23:40 10,6 C 92 % 1018,6 hPa 0,0 l/m 0,0 km/h (0 Bft) SO 135 9,4 C 11,6 C 0,0 km/h (0 Bft)
15.09.2014 23:50 10,3 C 92 % 1018,5 hPa 0,0 l/m 0,0 km/h (0 Bft) SO 135 9,1 C 11,6 C 0,0 km/h (0 Bft)
_ Min-Zeit 08:20 11:50 21:00 - 23:50 - - 08:20 20:40 23:50
Minimum _ 9,0 C 48 % 1017,5 hPa - 0,0 km/h (0 Bft) - - 7,4 C 11,5 C 0,0 km/h (0 Bft)
_ Max-Zeit 12:40 23:50 18:00 23:50 17:10 - - 18:00 16:50 18:00
Maximum _ 23,3 C 92 % 1022,4 hPa 0,0 l/m 5,3 km/h
O-NO (1 Bft)
- - 13,0 C 24,7 C 10,0 km/h
O-SO (2 Bft)
Durchschnitt _ 14,5 C 78 % 1019,2 hPa #0,0 l/m 0,5 km/h (0 Bft) O-NO - 10,3 C 17,1 C 0,7 km/h (0 Bft)